Time;durP1;ratioP1;P1;durP2;ratioP2;P2;SDS_P1;SDS_P2;PMS_P1;PMS_P2;Temp;Humidity;BMP_temperature;BMP_pressure;BME280_temperature;BME280_humidity;BME280_pressure;Samples;Min_cycle;Max_cycle;Signal;HPM_P1;HPM_P2
2021/11/20 00:02:22;;;;;;;22.88;5.30;;;;;;;10.88;100.00;102373.44;10194230;28;20049;-71
2021/11/20 00:07:19;;;;;;;17.90;4.20;;;;;;;10.90;100.00;102384.13;10201536;28;20072;-71
2021/11/20 00:12:23;;;;;;;21.83;5.15;;;;;;;10.87;100.00;102371.00;10200600;28;20054;-70
2021/11/20 00:17:21;;;;;;;20.95;4.15;;;;;;;10.83;100.00;102367.19;10200562;28;20053;-70
2021/11/20 00:22:34;;;;;;;19.17;3.97;;;;;;;10.86;100.00;102366.63;10199169;28;20549;-71
2021/11/20 00:27:34;;;;;;;19.08;3.03;;;;;;;10.84;100.00;102368.84;10207833;28;20038;-69
2021/11/20 00:32:34;;;;;;;14.45;2.92;;;;;;;10.85;100.00;102354.03;10205964;28;20042;-69
2021/11/20 00:37:31;;;;;;;22.15;4.07;;;;;;;10.88;100.00;102358.94;10212417;28;20065;-69
2021/11/20 00:42:27;;;;;;;16.63;3.28;;;;;;;10.84;100.00;102357.88;10201503;28;20091;-69
2021/11/20 00:47:25;;;;;;;14.02;3.28;;;;;;;10.85;100.00;102359.50;10207270;28;20041;-68
2021/11/20 00:52:21;;;;;;;13.80;3.30;;;;;;;10.87;100.00;102357.31;10205771;28;20042;-70
2021/11/20 00:57:18;;;;;;;17.23;4.03;;;;;;;10.86;100.00;102355.66;10208319;28;20042;-70
2021/11/20 01:02:14;;;;;;;17.73;3.65;;;;;;;10.86;100.00;102345.56;10208959;28;20317;-68
2021/11/20 01:07:12;;;;;;;15.82;3.42;;;;;;;10.82;100.00;102355.41;10196056;28;20049;-70
2021/11/20 01:12:13;;;;;;;17.88;3.63;;;;;;;10.81;100.00;102359.25;10200676;28;20078;-70
2021/11/20 01:17:11;;;;;;;12.77;2.53;;;;;;;10.82;100.00;102354.59;10203825;28;20118;-71
2021/11/20 01:22:15;;;;;;;12.55;3.00;;;;;;;10.75;100.00;102354.91;10200879;28;20056;-70
2021/11/20 01:27:12;;;;;;;18.15;3.53;;;;;;;10.78;100.00;102350.78;10192535;28;20049;-72
2021/11/20 01:32:09;;;;;;;12.77;3.88;;;;;;;10.73;100.00;102349.69;10203582;28;20042;-74
2021/11/20 01:37:07;;;;;;;15.10;4.38;;;;;;;10.77;100.00;102346.41;10208773;28;20096;-72
2021/11/20 01:42:12;;;;;;;19.33;5.10;;;;;;;10.74;100.00;102347.78;10192600;28;20080;-73
2021/11/20 01:47:23;;;;;;;12.55;3.75;;;;;;;10.76;100.00;102350.25;10198094;28;20173;-72
2021/11/20 01:52:54;;;;;;;12.60;4.38;;;;;;;10.77;100.00;102332.72;10209834;28;20046;-72
2021/11/20 01:58:09;;;;;;;14.73;4.47;;;;;;;10.74;100.00;102337.69;10196195;28;20504;-71
2021/11/20 02:03:27;;;;;;;15.65;4.45;;;;;;;10.82;100.00;102338.19;10201142;28;20049;-71
2021/11/20 02:08:48;;;;;;;16.63;5.13;;;;;;;10.78;100.00;102332.44;10203354;28;20065;-71
2021/11/20 02:13:44;;;;;;;13.27;4.50;;;;;;;10.73;100.00;102327.81;10184748;28;20045;-70
2021/11/20 02:18:46;;;;;;;18.60;4.53;;;;;;;10.74;100.00;102334.94;10202356;28;20073;-72
2021/11/20 02:23:42;;;;;;;11.70;4.72;;;;;;;10.71;100.00;102316.31;10187993;28;20070;-70
2021/11/20 02:28:40;;;;;;;18.88;5.72;;;;;;;10.68;100.00;102322.38;10204545;28;20485;-70
2021/11/20 02:33:39;;;;;;;17.13;6.43;;;;;;;10.64;100.00;102318.53;10192270;28;20133;-70
2021/11/20 02:39:02;;;;;;;20.85;6.30;;;;;;;10.66;100.00;102321.81;10178000;28;20093;-71
2021/11/20 02:44:01;;;;;;;19.45;5.55;;;;;;;10.67;100.00;102320.72;10193745;28;20065;-72
2021/11/20 02:48:58;;;;;;;19.00;6.75;;;;;;;10.65;100.00;102312.00;10198995;28;20573;-72
2021/11/20 02:53:59;;;;;;;21.40;6.85;;;;;;;10.63;100.00;102314.19;10205029;28;20184;-69
2021/11/20 02:58:56;;;;;;;16.10;6.50;;;;;;;10.63;100.00;102307.88;10195476;28;20050;-71
2021/11/20 03:03:53;;;;;;;21.17;6.85;;;;;;;10.63;100.00;102299.66;10200329;28;20042;-71
2021/11/20 03:08:50;;;;;;;23.90;6.53;;;;;;;10.64;100.00;102298.59;10186653;28;20101;-71
2021/11/20 03:13:50;;;;;;;19.67;5.90;;;;;;;10.64;100.00;102293.94;10195031;28;20045;-71
2021/11/20 03:18:47;;;;;;;17.48;5.70;;;;;;;10.64;100.00;102293.94;10195236;28;20072;-71
2021/11/20 03:23:47;;;;;;;21.23;4.95;;;;;;;10.68;100.00;102284.06;10207392;28;20077;-71
2021/11/20 03:28:44;;;;;;;15.55;4.15;;;;;;;10.71;100.00;102278.03;10199248;28;20143;-71
2021/11/20 03:33:40;;;;;;;20.60;4.78;;;;;;;10.68;100.00;102284.06;10200239;28;20148;-71
2021/11/20 03:38:37;;;;;;;17.10;5.00;;;;;;;10.69;100.00;102280.22;10190468;28;20084;-71
2021/11/20 03:43:35;;;;;;;19.70;7.45;;;;;;;10.77;100.00;102269.78;10190610;28;20507;-71
2021/11/20 03:48:32;;;;;;;32.60;9.98;;;;;;;10.80;100.00;102280.19;10191160;28;20492;-71
2021/11/20 03:53:28;;;;;;;29.70;9.55;;;;;;;10.82;100.00;102278.00;10191624;28;20553;-71
2021/11/20 03:58:25;;;;;;;30.02;11.43;;;;;;;10.78;100.00;102271.44;10196662;28;20061;-69
2021/11/20 04:03:21;;;;;;;29.13;10.90;;;;;;;10.83;100.00;102266.75;10207256;28;20046;-70
2021/11/20 04:08:19;;;;;;;25.75;10.98;;;;;;;10.86;100.00;102268.09;10211534;28;20064;-71
2021/11/20 04:13:17;;;;;;;22.25;10.45;;;;;;;10.78;100.00;102268.72;10201125;28;20104;-70
2021/11/20 04:18:13;;;;;;;24.15;9.70;;;;;;;10.81;100.00;102259.94;10217286;28;20100;-72
2021/11/20 04:23:10;;;;;;;26.20;9.02;;;;;;;10.74;100.00;102255.59;10207164;28;20470;-70
2021/11/20 04:28:07;;;;;;;19.17;7.72;;;;;;;10.72;100.00;102243.28;10203899;28;20076;-71
2021/11/20 04:33:04;;;;;;;26.55;10.35;;;;;;;10.69;100.00;102246.59;10205882;28;20073;-72
2021/11/20 04:38:01;;;;;;;28.88;11.70;;;;;;;10.65;100.00;102237.28;10204908;28;20103;-71
2021/11/20 04:42:58;;;;;;;30.00;13.18;;;;;;;10.63;100.00;102254.00;10200692;28;20085;-71
2021/11/20 04:47:54;;;;;;;35.75;13.20;;;;;;;10.68;100.00;102239.50;10201361;28;20782;-70
2021/11/20 04:52:56;;;;;;;34.10;12.50;;;;;;;10.70;100.00;102232.63;10195385;28;20050;-69
2021/11/20 04:57:52;;;;;;;29.75;11.00;;;;;;;10.66;100.00;102228.81;10202174;28;20508;-71
2021/11/20 05:02:49;;;;;;;28.20;10.43;;;;;;;10.72;100.00;102230.44;10191336;28;20508;-71
2021/11/20 05:07:45;;;;;;;25.20;10.38;;;;;;;10.69;100.00;102220.03;10199779;28;20056;-69
2021/11/20 05:12:43;;;;;;;25.15;9.48;;;;;;;10.71;100.00;102233.44;10204228;28;20126;-70
2021/11/20 05:17:40;;;;;;;25.92;9.98;;;;;;;10.74;100.00;102227.41;10209799;28;20100;-69
2021/11/20 05:22:42;;;;;;;24.27;10.25;;;;;;;10.70;100.00;102216.22;10202141;28;20125;-70
2021/11/20 05:27:39;;;;;;;32.28;10.38;;;;;;;10.70;100.00;102213.50;10210521;28;20046;-71
2021/11/20 05:32:35;;;;;;;27.13;11.60;;;;;;;10.74;100.00;102205.53;10198230;28;20049;-70
2021/11/20 05:37:32;;;;;;;25.52;10.27;;;;;;;10.70;100.00;102216.22;10213322;28;20066;-71
2021/11/20 05:42:29;;;;;;;24.98;10.38;;;;;;;10.70;100.00;102202.53;10211560;28;20046;-72
2021/11/20 05:47:26;;;;;;;21.45;10.35;;;;;;;10.70;100.00;102210.75;10200482;28;20047;-70
2021/11/20 05:52:22;;;;;;;26.83;11.35;;;;;;;10.59;100.00;102198.22;10204463;28;20100;-70
2021/11/20 05:57:19;;;;;;;28.10;11.43;;;;;;;10.62;100.00;102186.72;10198063;28;20074;-69
2021/11/20 06:02:15;;;;;;;25.23;11.05;;;;;;;10.63;100.00;102193.84;10201829;28;20053;-70
2021/11/20 06:07:12;;;;;;;22.40;11.10;;;;;;;10.63;100.00;102188.38;10200736;28;20047;-70
2021/11/20 06:12:10;;;;;;;26.10;11.13;;;;;;;10.63;100.00;102188.38;10194367;28;20113;-72
2021/11/20 06:17:07;;;;;;;21.23;10.55;;;;;;;10.61;100.00;102185.09;10193020;28;20056;-72
2021/11/20 06:22:03;;;;;;;32.28;12.38;;;;;;;10.58;100.00;102196.56;10201151;28;20076;-71
2021/11/20 06:27:02;;;;;;;19.20;10.75;;;;;;;10.60;100.00;102208.06;10190963;28;20058;-70
2021/11/20 06:31:58;;;;;;;19.92;11.02;;;;;;;10.60;100.00;102199.84;10204882;28;20053;-71
2021/11/20 06:36:55;;;;;;;26.48;10.98;;;;;;;10.56;100.00;102201.53;10198170;28;20062;-70
2021/11/20 06:41:52;;;;;;;24.98;10.50;;;;;;;10.60;100.00;102205.31;10193004;28;20133;-69
2021/11/20 06:46:48;;;;;;;21.17;11.05;;;;;;;10.62;100.00;102216.78;10189782;28;20042;-69
2021/11/20 06:51:45;;;;;;;24.67;12.45;;;;;;;10.60;100.00;102221.72;10190042;28;20042;-70
2021/11/20 06:56:48;;;;;;;23.52;11.35;;;;;;;10.53;100.00;102202.88;10194070;28;20069;-70
2021/11/20 07:01:45;;;;;;;;;;;;;;;10.53;100.00;102210.28;10185756;28;20045;-71
2021/11/20 07:07:13;;;;;;;22.17;11.90;;;;;;;10.54;100.00;102206.47;10193197;28;19964;-72
2021/11/20 07:12:10;;;;;;;26.10;11.88;;;;;;;10.53;100.00;102193.88;10186555;28;20085;-71
2021/11/20 07:17:06;;;;;;;24.25;11.93;;;;;;;10.53;100.00;102199.34;10195658;28;20099;-71
2021/11/20 07:22:03;;;;;;;25.85;12.32;;;;;;;10.52;100.00;102192.25;10182815;28;20069;-73
2021/11/20 07:26:59;;;;;;;25.08;12.50;;;;;;;10.45;100.00;102208.16;10203517;28;20046;-72
2021/11/20 07:31:56;;;;;;;26.20;14.23;;;;;;;10.51;100.00;102185.13;10188957;28;20080;-69
2021/11/20 07:36:55;;;;;;;28.27;13.82;;;;;;;10.47;100.00;102178.59;10189337;28;20046;-69
2021/11/20 07:41:51;;;;;;;25.08;12.50;;;;;;;10.49;100.00;102181.88;10192642;28;20419;-68
2021/11/20 07:46:48;;;;;;;31.50;13.65;;;;;;;10.47;100.00;102163.00;10190103;28;20132;-69
2021/11/20 07:51:45;;;;;;;26.23;13.38;;;;;;;10.53;100.00;102172.00;10180476;28;20528;-68
2021/11/20 07:56:42;;;;;;;18.02;10.70;;;;;;;10.54;100.00;102162.69;10166188;28;20120;-70
2021/11/20 08:01:39;;;;;;;21.38;13.23;;;;;;;10.52;100.00;102164.91;10177778;28;20041;-71
2021/11/20 08:06:37;;;;;;;22.60;12.50;;;;;;;10.60;100.00;102160.75;10178341;28;20419;-71
2021/11/20 08:11:35;;;;;;;25.20;14.07;;;;;;;10.58;100.00;102152.81;10180473;28;20065;-70
2021/11/20 08:16:33;;;;;;;26.27;14.63;;;;;;;10.57;100.00;102156.66;10179915;28;20046;-69
2021/11/20 08:21:30;;;;;;;28.33;14.95;;;;;;;10.61;100.00;102145.97;10180287;28;20482;-73
2021/11/20 08:26:35;;;;;;;22.30;13.15;;;;;;;10.53;100.00;102139.97;10179840;28;20057;-69
2021/11/20 08:31:33;;;;;;;25.02;14.57;;;;;;;10.49;100.00;102138.13;10192658;28;20066;-69
2021/11/20 08:36:30;;;;;;;23.35;14.73;;;;;;;10.58;100.00;102125.47;10188751;28;20139;-69
2021/11/20 08:41:27;;;;;;;21.17;11.73;;;;;;;10.58;100.00;102130.94;10182630;28;20046;-68
2021/11/20 08:46:24;;;;;;;20.33;12.10;;;;;;;10.62;100.00;102115.59;10192306;28;20112;-68
2021/11/20 08:51:26;;;;;;;19.95;12.30;;;;;;;10.63;100.00;102125.44;10195400;28;20045;-68
2021/11/20 08:56:24;;;;;;;20.63;11.07;;;;;;;10.64;100.00;102121.59;10190923;28;20095;-69
2021/11/20 09:01:20;;;;;;;21.13;11.15;;;;;;;10.67;100.00;102107.34;10188595;28;20053;-69
2021/11/20 09:06:28;;;;;;;14.32;9.38;;;;;;;10.65;100.00;102106.84;10185995;28;20092;-68
2021/11/20 09:11:36;;;;;;;18.45;9.25;;;;;;;10.69;100.00;102105.16;10183135;28;20466;-68
2021/11/20 09:16:34;;;;;;;22.15;9.45;;;;;;;10.71;100.00;102119.38;10182595;28;20133;-68
2021/11/20 09:21:31;;;;;;;15.90;8.20;;;;;;;10.76;100.00;102098.56;10184306;28;20045;-68
2021/11/20 09:26:30;;;;;;;13.50;7.65;;;;;;;10.78;100.00;102099.09;10179060;28;20092;-68
2021/11/20 09:31:29;;;;;;;16.83;7.25;;;;;;;10.87;100.00;102105.59;10184626;28;20045;-68
2021/11/20 09:36:27;;;;;;;12.40;7.80;;;;;;;10.93;100.00;102094.31;10177735;28;20042;-68
2021/11/20 09:41:28;;;;;;;14.63;8.20;;;;;;;10.94;100.00;102089.66;10184422;28;20130;-68
2021/11/20 09:46:37;;;;;;;13.73;7.43;;;;;;;11.02;100.00;102091.75;10182725;28;20066;-69
2021/11/20 09:51:36;;;;;;;12.93;6.72;;;;;;;11.01;100.00;102087.41;10178616;28;20099;-69
2021/11/20 09:56:47;;;;;;;14.02;7.00;;;;;;;10.97;100.00;102067.16;10165902;28;20136;-69
2021/11/20 10:02:16;;;;;;;13.43;6.75;;;;;;;10.99;100.00;102089.59;10184951;28;20558;-68
2021/11/20 10:07:26;;;;;;;14.57;6.78;;;;;;;11.00;100.00;102060.31;10181450;28;20065;-69
2021/11/20 10:12:36;;;;;;;10.82;5.88;;;;;;;11.02;100.00;102064.38;10182238;28;20484;-69
2021/11/20 10:18:11;;;;;;;15.23;7.50;;;;;;;10.99;100.00;102059.50;10185482;28;20080;-69
2021/11/20 10:23:10;;;;;;;10.00;7.00;;;;;;;11.06;100.00;102048.22;10152734;28;20177;-70
2021/11/20 10:28:11;;;;;;;16.15;7.28;;;;;;;11.05;100.00;102052.06;10178641;28;20135;-68
2021/11/20 10:33:16;;;;;;;12.07;6.75;;;;;;;11.05;100.00;102041.94;10179717;28;20169;-68
2021/11/20 10:38:23;;;;;;;37.38;8.80;;;;;;;11.05;100.00;102036.47;10185305;28;20450;-68
2021/11/20 10:43:23;;;;;;;12.27;6.75;;;;;;;11.04;100.00;102032.06;10179358;28;20124;-69
2021/11/20 10:48:30;;;;;;;12.02;6.82;;;;;;;11.08;100.00;102024.91;10183230;28;20088;-70
2021/11/20 10:53:41;;;;;;;14.48;6.60;;;;;;;11.03;100.00;102027.72;10178141;28;20065;-69
2021/11/20 10:58:49;;;;;;;12.35;6.70;;;;;;;10.97;100.00;102020.66;10185220;28;20037;-70
2021/11/20 11:04:07;;;;;;;14.65;7.05;;;;;;;10.96;100.00;102005.34;10185927;28;20932;-68
2021/11/20 11:09:09;;;;;;;10.05;7.78;;;;;;;10.94;100.00;101997.41;10185002;28;20076;-68
2021/11/20 11:14:30;;;;;;;17.95;7.70;;;;;;;10.99;100.00;101993.81;10188572;28;20423;-70
2021/11/20 11:19:48;;;;;;;15.75;8.40;;;;;;;10.99;100.00;101971.91;10192728;28;20087;-67
2021/11/20 11:25:06;;;;;;;14.93;7.20;;;;;;;11.01;100.00;101958.75;10201432;28;20111;-68
2021/11/20 11:30:20;;;;;;;14.00;6.13;;;;;;;10.99;100.00;101955.50;10189288;28;20054;-69
2021/11/20 11:35:26;;;;;;;11.30;6.45;;;;;;;11.04;100.00;101947.22;10179037;28;20132;-69
2021/11/20 11:40:34;;;;;;;11.02;6.68;;;;;;;10.94;100.00;101936.41;10186495;28;20049;-69
2021/11/20 11:45:46;;;;;;;9.73;6.75;;;;;;;10.94;100.00;101933.66;10185339;28;20050;-69
2021/11/20 11:50:46;;;;;;;13.43;7.97;;;;;;;10.91;100.00;101909.63;10181752;28;20096;-68
2021/11/20 11:55:54;;;;;;;10.55;8.75;;;;;;;10.88;100.00;101904.72;10182657;28;20595;-68
2021/11/20 12:01:10;;;;;;;13.10;8.82;;;;;;;10.91;100.00;101898.69;10177873;28;20096;-68
2021/11/20 12:06:30;;;;;;;14.63;9.10;;;;;;;10.79;100.00;101898.25;10182116;28;20758;-68
2021/11/20 12:11:40;;;;;;;13.88;10.23;;;;;;;10.90;100.00;101886.09;10192291;28;20045;-68
2021/11/20 12:16:53;;;;;;;14.07;10.38;;;;;;;10.92;100.00;101878.41;10201317;28;20041;-68
2021/11/20 12:22:17;;;;;;;15.10;10.13;;;;;;;10.91;100.00;101854.91;10193974;28;20126;-68
2021/11/20 12:27:47;;;;;;;16.50;10.38;;;;;;;10.92;100.00;101837.38;10202377;28;20038;-68
2021/11/20 12:33:13;;;;;;;15.68;9.93;;;;;;;10.88;100.00;101819.91;10203124;28;20072;-68
2021/11/20 12:38:15;;;;;;;15.20;10.98;;;;;;;10.88;100.00;101817.16;10179855;28;20863;-68
2021/11/20 12:43:30;;;;;;;15.52;11.27;;;;;;;10.90;100.00;101810.28;10200895;28;20069;-68
2021/11/20 12:48:45;;;;;;;17.20;12.07;;;;;;;10.92;100.00;101796.31;10215113;28;20558;-67
2021/11/20 12:53:45;;;;;;;15.05;11.82;;;;;;;10.91;100.00;101776.38;10199549;28;20124;-68
2021/11/20 12:58:57;;;;;;;17.70;13.80;;;;;;;10.86;100.00;101775.59;10200554;28;20558;-68
2021/11/20 13:04:08;;;;;;;16.85;12.93;;;;;;;10.85;100.00;101768.50;10194170;28;20081;-68
2021/11/20 13:09:26;;;;;;;19.48;14.75;;;;;;;10.79;100.00;101756.00;10197732;28;20100;-68
2021/11/20 13:14:31;;;;;;;17.95;14.18;;;;;;;10.76;100.00;101753.88;10209163;28;20071;-68
2021/11/20 13:19:42;;;;;;;20.67;14.82;;;;;;;10.85;100.00;101727.47;10179588;28;20117;-68
2021/11/20 13:24:47;;;;;;;23.40;13.73;;;;;;;10.85;100.00;101741.16;10201864;28;20065;-68
2021/11/20 13:29:44;;;;;;;25.45;14.75;;;;;;;10.79;100.00;101731.38;10180578;28;20519;-67
2021/11/20 13:34:51;;;;;;;18.67;14.23;;;;;;;10.71;100.00;101714.53;10181995;28;20076;-68
2021/11/20 13:39:48;;;;;;;17.15;13.85;;;;;;;10.66;100.00;101717.31;10181426;28;20569;-68
2021/11/20 13:44:48;;;;;;;17.02;13.65;;;;;;;10.72;100.00;101707.97;10177920;28;20050;-68
2021/11/20 13:49:57;;;;;;;20.63;14.35;;;;;;;10.73;100.00;101695.91;10180167;28;20072;-67
2021/11/20 13:55:01;;;;;;;25.25;15.75;;;;;;;10.61;100.00;101698.25;10182307;28;20046;-68
2021/11/20 14:00:11;;;;;;;20.15;14.25;;;;;;;10.51;100.00;101687.44;10180398;28;20045;-67
2021/11/20 14:05:07;;;;;;;18.00;14.35;;;;;;;10.51;100.00;101681.97;10191430;28;20100;-70
2021/11/20 14:10:10;;;;;;;20.42;15.27;;;;;;;10.36;100.00;101680.25;10188467;28;20076;-69
2021/11/20 14:15:09;;;;;;;21.53;16.17;;;;;;;10.31;100.00;101672.94;10187726;28;20142;-70
2021/11/20 14:20:10;;;;;;;22.80;16.95;;;;;;;10.31;100.00;101674.84;10191842;28;20049;-68
2021/11/20 14:25:17;;;;;;;25.52;18.25;;;;;;;10.19;100.00;101672.53;10192561;28;20092;-68
2021/11/20 14:30:17;;;;;;;26.95;19.02;;;;;;;10.24;100.00;101661.50;10187589;28;20470;-68
2021/11/20 14:35:14;;;;;;;23.10;17.90;;;;;;;10.23;100.00;101665.34;10190470;28;20128;-70
2021/11/20 14:40:12;;;;;;;26.52;19.30;;;;;;;10.17;100.00;101647.41;10194145;28;20116;-69
2021/11/20 14:45:14;;;;;;;23.75;18.52;;;;;;;10.15;100.00;101651.53;10182557;28;20133;-68
2021/11/20 14:50:19;;;;;;;27.58;19.77;;;;;;;10.09;100.00;101634.38;10181229;28;20420;-69
2021/11/20 14:55:15;;;;;;;25.98;17.58;;;;;;;9.98;100.00;101636.44;10179585;28;20045;-67
2021/11/20 15:00:12;;;;;;;29.02;21.90;;;;;;;9.92;100.00;101625.84;10180800;28;20049;-68
2021/11/20 15:05:09;;;;;;;32.60;23.33;;;;;;;9.86;100.00;101623.19;10176920;28;20503;-69
2021/11/20 15:10:05;;;;;;;32.92;23.08;;;;;;;9.84;100.00;101613.63;10187954;28;20081;-69
2021/11/20 15:15:04;;;;;;;33.85;24.02;;;;;;;9.83;100.00;101623.75;10174478;28;20092;-69
2021/11/20 15:20:00;;;;;;;35.30;24.88;;;;;;;9.74;100.00;101611.81;10184693;28;20050;-69
2021/11/20 15:24:57;;;;;;;33.65;23.55;;;;;;;9.73;100.00;101610.22;10178661;28;20053;-69
2021/11/20 15:29:54;;;;;;;32.78;24.77;;;;;;;9.67;100.00;101592.25;10187287;28;20037;-69
2021/11/20 15:34:52;;;;;;;36.83;24.55;;;;;;;9.60;100.00;101586.31;10178513;28;20504;-69
2021/11/20 15:39:49;;;;;;;35.38;24.42;;;;;;;9.57;100.00;101576.00;10190673;28;20050;-69
2021/11/20 15:44:45;;;;;;;37.22;27.25;;;;;;;9.50;100.00;101578.25;10177278;28;20050;-68
2021/11/20 15:49:42;;;;;;;34.63;25.92;;;;;;;9.53;100.00;101569.47;10178743;28;20045;-70
2021/11/20 15:54:40;;;;;;;37.10;25.58;;;;;;;9.43;100.00;101559.47;10167671;28;20058;-70
2021/11/20 15:59:39;;;;;;;34.53;24.75;;;;;;;9.45;100.00;101563.53;10185730;28;20042;-70
2021/11/20 16:04:37;;;;;;;36.88;23.63;;;;;;;9.45;100.00;101558.09;10189606;28;20545;-70
2021/11/20 16:09:33;;;;;;;34.65;23.58;;;;;;;9.29;100.00;101553.91;10186078;28;20271;-70
2021/11/20 16:14:30;;;;;;;35.85;23.38;;;;;;;9.34;100.00;101551.09;10178178;28;20042;-70
2021/11/20 16:19:30;;;;;;;34.35;21.50;;;;;;;9.36;100.00;101527.06;10179134;28;20057;-70
2021/11/20 16:24:27;;;;;;;34.35;23.55;;;;;;;9.35;100.00;101535.53;10186817;28;20503;-70
2021/11/20 16:29:23;;;;;;;32.53;23.60;;;;;;;9.36;100.00;101526.25;10186638;28;20078;-70
2021/11/20 16:34:20;;;;;;;34.13;23.88;;;;;;;9.34;100.00;101523.81;10179010;28;20553;-68
2021/11/20 16:39:17;;;;;;;34.67;22.85;;;;;;;9.33;100.00;101522.19;10185857;28;20089;-70
2021/11/20 16:44:16;;;;;;;33.15;22.48;;;;;;;9.30;100.00;101517.31;10195589;28;20046;-71
2021/11/20 16:49:14;;;;;;;32.50;22.10;;;;;;;9.35;100.00;101506.34;10198638;28;20038;-70
2021/11/20 16:54:17;;;;;;;33.15;22.83;;;;;;;9.34;100.00;101504.72;10191373;28;20076;-70
2021/11/20 16:59:14;;;;;;;30.20;20.83;;;;;;;9.29;100.00;101488.41;10200330;28;20045;-70
2021/11/20 17:04:11;;;;;;;34.17;22.33;;;;;;;9.30;100.00;101483.75;10189832;28;20042;-70
2021/11/20 17:09:08;;;;;;;29.98;20.50;;;;;;;9.22;100.00;101498.84;10189732;28;20452;-70
2021/11/20 17:14:05;;;;;;;38.03;22.95;;;;;;;9.19;100.00;101466.66;10197490;28;20099;-70
2021/11/20 17:19:03;;;;;;;36.60;22.67;;;;;;;9.26;100.00;101472.63;10202114;28;21377;-69
2021/11/20 17:23:59;;;;;;;36.58;22.58;;;;;;;9.18;100.00;101475.97;10180112;28;20132;-70
2021/11/20 17:28:56;;;;;;;37.35;22.95;;;;;;;9.14;100.00;101462.06;10188602;28;20127;-70
2021/11/20 17:33:53;;;;;;;38.72;24.05;;;;;;;9.23;100.00;101456.81;10182455;28;20077;-70
2021/11/20 17:38:49;;;;;;;38.17;23.85;;;;;;;9.23;100.00;101446.69;10183426;28;20046;-70
2021/11/20 17:43:46;;;;;;;37.28;22.70;;;;;;;9.22;100.00;101438.81;10214376;28;20073;-70
2021/11/20 17:48:43;;;;;;;36.55;22.55;;;;;;;9.19;100.00;101439.38;10183607;28;20049;-70
2021/11/20 17:53:40;;;;;;;43.45;23.10;;;;;;;9.13;100.00;101443.28;10178795;28;20746;-69
2021/11/20 17:58:38;;;;;;;36.38;22.35;;;;;;;9.18;100.00;101426.84;10187567;28;20076;-69
2021/11/20 18:03:35;;;;;;;39.40;22.75;;;;;;;9.18;100.00;101427.66;10180131;28;20049;-69
2021/11/20 18:08:33;;;;;;;39.80;23.48;;;;;;;9.21;100.00;101420.81;10179229;28;20454;-69
2021/11/20 18:13:29;;;;;;;35.90;22.20;;;;;;;9.21;100.00;101420.81;10189410;28;20593;-68
2021/11/20 18:18:26;;;;;;;27.90;17.75;;;;;;;9.15;100.00;101417.34;10190744;28;20042;-70
2021/11/20 18:23:24;;;;;;;30.50;17.13;;;;;;;9.11;100.00;101412.75;10185677;28;20100;-69
2021/11/20 18:28:21;;;;;;;32.55;18.70;;;;;;;9.17;100.00;101408.88;10200753;28;20042;-69
2021/11/20 18:33:17;;;;;;;40.10;20.77;;;;;;;9.16;100.00;101396.31;10193191;28;20144;-69
2021/11/20 18:38:14;;;;;;;28.88;17.52;;;;;;;9.15;100.00;101386.53;10204913;28;20052;-69
2021/11/20 18:43:11;;;;;;;30.33;19.05;;;;;;;9.23;100.00;101377.66;10184789;28;20038;-73
2021/11/20 18:48:07;;;;;;;31.20;18.48;;;;;;;9.24;100.00;101365.66;10181265;28;20038;-69
2021/11/20 18:53:04;;;;;;;26.83;16.80;;;;;;;9.21;100.00;101367.06;10180197;28;20463;-72
2021/11/20 18:58:03;;;;;;;28.48;17.50;;;;;;;9.23;100.00;101358.56;10178775;28;20053;-69
2021/11/20 19:02:59;;;;;;;27.38;16.27;;;;;;;9.24;100.00;101349.31;10178709;28;20073;-70
2021/11/20 19:07:56;;;;;;;32.60;19.10;;;;;;;9.20;100.00;101337.34;10183734;28;20112;-69
2021/11/20 19:12:53;;;;;;;27.38;15.30;;;;;;;9.27;100.00;101326.88;10177845;28;20184;-70
2021/11/20 19:17:49;;;;;;;27.13;17.13;;;;;;;9.23;100.00;101320.38;10175258;28;20068;-69
2021/11/20 19:22:46;;;;;;;29.02;17.50;;;;;;;9.21;100.00;101301.59;10199361;28;20474;-69
2021/11/20 19:27:43;;;;;;;28.35;15.52;;;;;;;9.14;100.00;101289.41;10186503;28;20530;-70
2021/11/20 19:32:40;;;;;;;23.02;12.77;;;;;;;9.13;100.00;101282.31;10178525;28;20069;-69
2021/11/20 19:37:38;;;;;;;18.92;11.75;;;;;;;9.11;100.00;101279.06;10188557;28;20042;-70
2021/11/20 19:42:34;;;;;;;18.77;10.98;;;;;;;9.13;100.00;101276.88;10191706;28;20046;-69
2021/11/20 19:47:31;;;;;;;17.92;10.43;;;;;;;9.11;100.00;101279.06;10192513;28;20585;-69
2021/11/20 19:52:27;;;;;;;18.08;11.27;;;;;;;9.15;100.00;101274.66;10203617;28;20124;-70
2021/11/20 19:57:24;;;;;;;97.75;13.98;;;;;;;9.01;100.00;101264.47;10193157;28;20069;-70
2021/11/20 20:02:21;;;;;;;19.38;11.15;;;;;;;9.01;100.00;101261.75;10187571;28;20037;-68
2021/11/20 20:07:18;;;;;;;17.90;9.90;;;;;;;8.99;100.00;101258.50;10189546;28;20048;-70
2021/11/20 20:12:14;;;;;;;15.38;9.18;;;;;;;8.94;100.00;101244.94;10180288;28;20135;-69
2021/11/20 20:17:11;;;;;;;16.52;9.95;;;;;;;8.93;100.00;101235.13;10190153;28;20046;-69
2021/11/20 20:22:09;;;;;;;18.38;9.85;;;;;;;8.91;100.00;101239.25;10186723;28;20046;-69
2021/11/20 20:27:07;;;;;;;17.50;9.60;;;;;;;8.91;100.00;101221.00;10186389;28;20452;-70
2021/11/20 20:32:04;;;;;;;15.43;9.15;;;;;;;8.90;100.00;101219.34;10191279;28;20519;-70
2021/11/20 20:37:02;;;;;;;19.40;11.50;;;;;;;8.89;100.00;101208.72;10185501;28;20050;-70
2021/11/20 20:42:12;;;;;;;15.65;9.32;;;;;;;8.90;100.00;101197.53;10184208;28;20065;-69
2021/11/20 20:47:09;;;;;;;16.20;8.60;;;;;;;8.85;100.00;101201.16;10199402;28;20073;-69
2021/11/20 20:52:06;;;;;;;13.95;7.32;;;;;;;8.84;100.00;101194.09;10196493;28;20145;-69
2021/11/20 20:57:03;;;;;;;14.50;7.88;;;;;;;8.84;100.00;101183.19;10194158;28;20088;-71
2021/11/20 21:02:00;;;;;;;12.52;7.63;;;;;;;8.85;100.00;101178.53;10196309;28;20462;-70
2021/11/20 21:06:57;;;;;;;11.52;8.15;;;;;;;8.83;100.00;101186.19;10194873;28;20049;-70
2021/11/20 21:11:53;;;;;;;12.60;8.23;;;;;;;8.81;100.00;101191.13;10202909;28;20077;-69
2021/11/20 21:16:52;;;;;;;11.88;6.90;;;;;;;8.86;100.00;101174.69;10193387;28;20065;-69
2021/11/20 21:22:09;;;;;;;12.25;7.85;;;;;;;8.82;100.00;101168.22;10202092;28;20152;-71
2021/11/20 21:27:06;;;;;;;11.43;7.30;;;;;;;8.77;100.00;101162.81;10174135;28;20054;-70
2021/11/20 21:32:06;;;;;;;14.50;7.93;;;;;;;8.72;100.00;101168.34;10184266;28;20510;-70
2021/11/20 21:37:05;;;;;;;12.02;7.70;;;;;;;8.76;100.00;101155.75;10180709;28;20057;-69
2021/11/20 21:42:04;;;;;;;11.25;7.10;;;;;;;8.78;100.00;101150.81;10173362;28;20476;-70
2021/11/20 21:47:01;;;;;;;11.95;7.72;;;;;;;8.66;100.00;101139.53;10180767;28;20049;-69
2021/11/20 21:51:58;;;;;;;16.45;7.60;;;;;;;8.71;100.00;101144.94;10182080;28;20551;-69
2021/11/20 21:56:56;;;;;;;11.60;6.35;;;;;;;8.69;100.00;101136.22;10191720;28;20116;-68
2021/11/20 22:01:52;;;;;;;10.18;6.40;;;;;;;8.70;100.00;101116.03;10195611;28;20431;-69
2021/11/20 22:06:59;;;;;;;13.55;6.55;;;;;;;8.60;100.00;101114.25;10181450;28;20108;-70
2021/11/20 22:11:57;;;;;;;9.75;6.07;;;;;;;8.62;100.00;101110.13;10189731;28;20056;-70
2021/11/20 22:16:59;;;;;;;12.37;6.57;;;;;;;8.59;100.00;101110.75;10182058;28;20137;-70
2021/11/20 22:21:55;;;;;;;12.02;5.85;;;;;;;8.61;100.00;101097.63;10180657;28;20082;-70
2021/11/20 22:26:52;;;;;;;14.50;6.82;;;;;;;8.55;100.00;101089.81;10189245;28;20731;-69